Time;durP1;ratioP1;P1;durP2;ratioP2;P2;SDS_P1;SDS_P2;PMS_P1;PMS_P2;Temp;Humidity;BMP_temperature;BMP_pressure;BME280_temperature;BME280_humidity;BME280_pressure;Samples;Min_cycle;Max_cycle;Signal;HPM_P1;HPM_P2
2021/06/23 00:01:49;;;;;;;4.57;2.00;;;;;;;17.92;84.02;96209.28;5053580;28;20128;-73
2021/06/23 00:04:16;;;;;;;4.43;2.70;;;;;;;17.72;85.78;96208.50;5053552;28;20045;-73
2021/06/23 00:06:44;;;;;;;7.93;3.30;;;;;;;17.61;86.83;96213.03;5053704;28;20045;-73
2021/06/23 00:09:10;;;;;;;7.40;3.53;;;;;;;17.52;88.07;96216.03;5053285;28;20053;-73
2021/06/23 00:11:42;;;;;;;7.00;2.80;;;;;;;17.43;88.68;96212.72;5053627;28;20404;-74
2021/06/23 00:14:08;;;;;;;6.60;3.20;;;;;;;17.38;89.27;96222.09;5053144;28;20090;-72
2021/06/23 00:16:35;;;;;;;7.30;3.90;;;;;;;17.35;90.38;96216.50;5053510;28;20041;-72
2021/06/23 00:19:02;;;;;;;9.05;4.55;;;;;;;17.39;91.17;96223.69;5052820;28;20049;-73
2021/06/23 00:21:28;;;;;;;6.13;4.53;;;;;;;17.45;91.61;96233.22;5053248;28;20056;-72
2021/06/23 00:23:56;;;;;;;8.25;5.68;;;;;;;17.52;92.15;96238.06;5053428;28;20049;-72
2021/06/23 00:26:23;;;;;;;9.73;6.60;;;;;;;17.57;92.47;96239.72;5053098;28;20040;-72
2021/06/23 00:28:49;;;;;;;9.68;7.45;;;;;;;17.62;92.70;96236.66;5053100;28;20048;-72
2021/06/23 00:31:16;;;;;;;10.27;7.13;;;;;;;17.64;93.01;96234.31;5052621;28;20059;-72
2021/06/23 00:33:42;;;;;;;10.48;8.18;;;;;;;17.67;93.13;96234.41;5053386;28;20400;-72
2021/06/23 00:36:09;;;;;;;11.82;8.00;;;;;;;17.71;93.34;96237.22;5052706;28;20067;-74
2021/06/23 00:38:36;;;;;;;12.80;9.38;;;;;;;17.69;93.70;96243.06;5053163;28;20099;-72
2021/06/23 00:41:03;;;;;;;14.43;9.88;;;;;;;17.73;93.74;96243.19;5052535;28;20041;-73
2021/06/23 00:43:30;;;;;;;15.88;10.57;;;;;;;17.73;93.74;96251.44;5052854;28;20053;-72
2021/06/23 00:45:57;;;;;;;14.60;10.70;;;;;;;17.74;93.66;96234.53;5053105;28;20508;-74
2021/06/23 00:48:28;;;;;;;16.08;11.15;;;;;;;17.77;93.72;96233.03;5051541;28;20060;-74
2021/06/23 00:50:55;;;;;;;11.57;9.05;;;;;;;17.80;93.41;96221.28;5052837;28;20044;-73
2021/06/23 00:53:22;;;;;;;10.52;8.48;;;;;;;17.81;93.24;96219.31;5052505;28;20269;-75
2021/06/23 00:55:52;;;;;;;10.63;8.07;;;;;;;17.84;93.11;96221.31;5052732;28;20037;-74
2021/06/23 00:58:21;;;;;;;10.07;7.18;;;;;;;17.81;92.66;96216.56;5052046;28;20037;-74
2021/06/23 01:00:48;;;;;;;9.95;7.40;;;;;;;17.78;92.46;96207.06;5052537;28;20053;-72
2021/06/23 01:03:15;;;;;;;6.65;5.10;;;;;;;17.78;91.93;96196.06;5052053;28;20397;-72
2021/06/23 01:05:42;;;;;;;6.45;4.53;;;;;;;17.69;91.07;96201.78;5052759;28;20051;-74
2021/06/23 01:08:10;;;;;;;8.60;4.88;;;;;;;17.55;89.99;96192.50;5052158;28;20052;-74
2021/06/23 01:10:37;;;;;;;7.45;4.63;;;;;;;17.51;89.68;96203.44;5052469;28;20041;-74
2021/06/23 01:13:36;;;;;;;6.22;4.15;;;;;;;17.51;89.48;96197.13;5051885;28;20059;-74
2021/06/23 01:16:06;;;;;;;7.95;4.85;;;;;;;17.45;89.26;96202.94;5051480;28;20550;-72
2021/06/23 01:18:35;;;;;;;7.50;4.38;;;;;;;17.44;89.21;96203.31;5052121;28;20496;-72
2021/06/23 01:24:24;;;;;;;6.32;4.18;;;;;;;17.35;89.28;96189.00;5050457;28;20140;-72
2021/06/23 01:26:51;;;;;;;7.95;4.72;;;;;;;17.31;89.22;96188.91;5051862;28;20504;-72
2021/06/23 01:29:17;;;;;;;5.93;4.00;;;;;;;17.30;89.31;96189.28;5051649;28;20049;-72
2021/06/23 01:31:43;;;;;;;6.80;4.70;;;;;;;17.34;89.38;96192.91;5051381;28;20507;-71
2021/06/23 01:34:11;;;;;;;7.05;5.43;;;;;;;17.36;89.30;96188.63;5051064;28;20531;-72
2021/06/23 01:36:38;;;;;;;6.75;4.65;;;;;;;17.41;89.33;96187.53;5052091;28;20045;-72
2021/06/23 01:39:05;;;;;;;9.55;4.60;;;;;;;17.40;89.14;96186.72;5051486;28;20049;-72
2021/06/23 01:41:33;;;;;;;7.13;4.28;;;;;;;17.39;88.95;96195.34;5051805;28;20052;-72
2021/06/23 01:43:59;;;;;;;6.07;4.28;;;;;;;17.40;88.68;96185.94;5051719;28;20049;-72
2021/06/23 01:46:26;;;;;;;7.57;4.35;;;;;;;17.39;88.48;96184.34;5051043;28;20045;-74
2021/06/23 01:48:52;;;;;;;9.48;4.72;;;;;;;17.42;88.40;96187.16;5051262;28;20502;-72
2021/06/23 01:51:19;;;;;;;7.63;4.97;;;;;;;17.40;88.15;96181.22;5051196;28;20049;-72
2021/06/23 01:53:45;;;;;;;5.88;4.28;;;;;;;17.38;88.46;96182.72;5051281;28;20041;-72
2021/06/23 01:56:12;;;;;;;8.65;5.05;;;;;;;17.38;88.51;96189.06;5051399;28;20052;-74
2021/06/23 01:58:41;;;;;;;6.97;4.70;;;;;;;17.38;88.46;96200.06;5051514;28;20049;-74
2021/06/23 02:01:16;;;;;;;7.15;4.57;;;;;;;17.43;88.44;96197.00;5050970;28;20072;-72
2021/06/23 02:04:11;;;;;;;7.18;3.97;;;;;;;17.45;87.25;96189.19;5051700;28;20052;-73
2021/06/23 02:06:46;;;;;;;5.90;3.50;;;;;;;17.33;85.79;96194.88;5047063;28;20048;-74
2021/06/23 02:09:27;;;;;;;4.85;3.28;;;;;;;17.31;85.74;96199.91;5051050;28;20049;-74
2021/06/23 02:12:01;;;;;;;4.70;3.28;;;;;;;17.30;85.31;96200.28;5051335;28;20041;-74
2021/06/23 02:14:39;;;;;;;6.63;3.58;;;;;;;17.34;85.81;96204.72;5071283;28;20422;-74
2021/06/23 02:17:08;;;;;;;6.20;4.13;;;;;;;17.35;85.47;96211.00;5070709;28;20047;-74
2021/06/23 02:19:39;;;;;;;5.95;4.00;;;;;;;17.38;86.21;96227.59;5071192;28;20051;-74
2021/06/23 02:22:10;;;;;;;8.23;4.45;;;;;;;17.38;86.66;96222.09;5070988;28;20059;-72
2021/06/23 02:24:37;;;;;;;6.68;4.78;;;;;;;17.44;87.14;96220.63;5070613;28;20040;-73
2021/06/23 02:27:04;;;;;;;8.18;4.78;;;;;;;17.52;87.16;96226.25;5070660;28;20055;-72
2021/06/23 02:29:32;;;;;;;9.18;4.88;;;;;;;17.59;87.28;96221.69;5071200;28;20047;-72
2021/06/23 02:32:01;;;;;;;6.30;4.22;;;;;;;17.65;87.08;96233.19;5071164;28;20045;-74
2021/06/23 02:34:28;;;;;;;5.63;4.05;;;;;;;17.71;87.00;96234.47;5071043;28;20430;-74
2021/06/23 02:36:55;;;;;;;6.75;4.70;;;;;;;17.79;86.74;96230.69;5071339;28;20048;-72
2021/06/23 02:39:22;;;;;;;6.85;4.53;;;;;;;17.82;86.03;96232.72;5070432;28;20072;-72
2021/06/23 02:41:48;;;;;;;6.13;3.80;;;;;;;17.79;84.31;96236.19;5071092;28;20040;-72
2021/06/23 02:44:15;;;;;;;6.60;3.45;;;;;;;17.72;83.46;96241.56;5070757;28;20056;-72
2021/06/23 02:46:42;;;;;;;5.65;3.75;;;;;;;17.63;83.60;96249.25;5070918;28;20045;-72
2021/06/23 02:49:11;;;;;;;8.10;3.50;;;;;;;17.61;83.89;96243.34;5070619;28;20041;-72
2021/06/23 02:51:40;;;;;;;5.57;3.67;;;;;;;17.60;84.14;96250.81;5071009;28;20077;-72
2021/06/23 02:54:07;;;;;;;7.60;3.65;;;;;;;17.56;83.98;96249.13;5070251;28;20083;-72
2021/06/23 02:56:34;;;;;;;7.32;4.10;;;;;;;17.55;84.45;96258.56;5070768;28;20072;-72
2021/06/23 02:59:02;;;;;;;7.90;5.30;;;;;;;17.59;85.06;96253.91;5070769;28;20045;-72
2021/06/23 03:01:29;;;;;;;5.18;3.45;;;;;;;17.65;85.58;96257.97;5070798;28;20053;-72
2021/06/23 03:03:56;;;;;;;7.70;4.47;;;;;;;17.69;85.95;96275.31;5070924;28;20044;-72
2021/06/23 03:06:24;;;;;;;7.32;3.88;;;;;;;17.69;86.25;96280.84;5070462;28;20048;-72
2021/06/23 03:08:51;;;;;;;8.60;4.72;;;;;;;17.74;86.46;96278.59;5070699;28;20048;-72
2021/06/23 03:11:17;;;;;;;6.63;4.70;;;;;;;17.81;86.63;96283.47;5070333;28;20047;-72
2021/06/23 03:13:44;;;;;;;10.32;5.07;;;;;;;17.87;86.78;96286.72;5074092;28;20048;-72
2021/06/23 03:16:10;;;;;;;7.75;4.93;;;;;;;17.92;86.81;96289.94;5074066;28;20051;-72
2021/06/23 03:18:37;;;;;;;8.55;5.50;;;;;;;17.95;86.79;96283.69;5074218;28;20056;-72
2021/06/23 03:21:06;;;;;;;9.50;6.13;;;;;;;18.03;86.88;96292.09;5074091;28;20052;-72
2021/06/23 03:23:34;;;;;;;9.02;5.38;;;;;;;18.08;87.10;96298.09;5073868;28;20044;-72
2021/06/23 03:26:01;;;;;;;6.20;4.95;;;;;;;18.14;86.55;96295.81;5074036;28;20048;-72
2021/06/23 03:28:27;;;;;;;6.95;4.80;;;;;;;18.17;86.38;96301.41;5073108;28;20071;-72
2021/06/23 03:30:54;;;;;;;7.18;5.22;;;;;;;18.19;86.25;96304.56;5073650;28;20518;-72
2021/06/23 03:33:21;;;;;;;8.65;4.82;;;;;;;18.24;86.40;96309.00;5073077;28;20044;-72
2021/06/23 03:35:47;;;;;;;8.23;5.38;;;;;;;18.26;85.94;96312.94;5073382;28;20495;-72
2021/06/23 03:38:14;;;;;;;9.50;5.53;;;;;;;18.32;86.02;96320.91;5073193;28;20040;-72
2021/06/23 03:40:41;;;;;;;7.22;5.40;;;;;;;18.32;85.67;96321.72;5072957;28;20048;-72
2021/06/23 03:43:08;;;;;;;8.18;5.05;;;;;;;18.35;85.76;96323.75;5073540;28;20048;-72
2021/06/23 03:45:34;;;;;;;6.13;4.70;;;;;;;18.38;85.79;96328.53;5072663;28;20491;-72
2021/06/23 03:48:01;;;;;;;7.80;6.13;;;;;;;18.36;86.05;96336.34;5073660;28;20491;-72
2021/06/23 03:50:29;;;;;;;8.90;5.57;;;;;;;18.37;86.23;96337.94;5073552;28;20041;-72
2021/06/23 03:52:56;;;;;;;6.93;5.43;;;;;;;18.39;86.55;96343.91;5074052;28;20048;-72
2021/06/23 03:55:25;;;;;;;7.65;6.05;;;;;;;18.45;85.88;96349.91;5073767;28;20408;-72
2021/06/23 03:57:55;;;;;;;6.28;5.07;;;;;;;18.46;85.74;96354.25;5074203;28;20041;-72
2021/06/23 04:00:24;;;;;;;9.77;6.18;;;;;;;18.46;85.92;96346.75;5073150;28;20048;-72
2021/06/23 04:02:51;;;;;;;8.43;6.00;;;;;;;18.51;85.76;96359.44;5073770;28;20041;-72
2021/06/23 04:05:17;;;;;;;7.35;5.65;;;;;;;18.51;84.66;96357.47;5072932;28;20057;-72
2021/06/23 04:07:44;;;;;;;7.60;5.75;;;;;;;18.49;84.95;96356.28;5073797;28;20044;-72
2021/06/23 04:10:12;;;;;;;7.82;6.15;;;;;;;18.49;85.17;96356.28;5073233;28;20102;-72
2021/06/23 04:12:38;;;;;;;8.80;6.68;;;;;;;18.50;85.43;96358.66;5073482;28;20403;-71
2021/06/23 04:15:09;;;;;;;10.00;6.40;;;;;;;18.54;85.59;96366.19;5072805;28;20052;-72
2021/06/23 04:17:36;;;;;;;8.15;6.57;;;;;;;18.57;85.31;96362.69;5073413;28;20044;-73
2021/06/23 04:20:03;;;;;;;13.93;7.60;;;;;;;18.57;85.60;96359.94;5072894;28;20040;-72
2021/06/23 04:22:29;;;;;;;11.50;7.85;;;;;;;18.59;85.75;96360.38;5073564;28;20041;-72
2021/06/23 04:24:56;;;;;;;12.77;8.68;;;;;;;18.60;85.58;96356.44;5071643;28;20495;-72
2021/06/23 04:27:23;;;;;;;9.70;8.07;;;;;;;18.62;85.81;96354.88;5072977;28;20127;-72
2021/06/23 04:29:50;;;;;;;12.88;8.35;;;;;;;18.65;85.53;96359.69;5073192;28;20044;-72
2021/06/23 04:32:18;;;;;;;13.40;8.77;;;;;;;18.67;84.64;96356.53;5071250;28;20133;-72
2021/06/23 04:34:44;;;;;;;8.93;7.32;;;;;;;18.66;84.34;96355.75;5072041;28;20446;-72
2021/06/23 04:37:11;;;;;;;14.32;8.13;;;;;;;18.66;84.70;96349.44;5072402;28;20063;-72
2021/06/23 04:39:37;;;;;;;12.60;7.40;;;;;;;18.72;85.10;96342.47;5072723;28;20041;-72
2021/06/23 04:42:05;;;;;;;16.42;7.43;;;;;;;18.75;85.07;96331.50;5072250;28;20052;-72
2021/06/23 04:44:31;;;;;;;9.07;6.60;;;;;;;18.76;83.50;96318.50;5073025;28;20060;-72
2021/06/23 04:46:58;;;;;;;9.43;6.30;;;;;;;18.75;83.06;96319.66;5072449;28;20093;-74
2021/06/23 04:49:25;;;;;;;9.18;6.55;;;;;;;18.70;83.51;96317.22;5071989;28;20047;-74
2021/06/23 04:51:52;;;;;;;16.13;9.50;;;;;;;18.73;84.09;96327.50;5072354;28;20037;-74
2021/06/23 04:54:18;;;;;;;14.35;9.77;;;;;;;18.73;84.59;96338.53;5071798;28;20055;-72
2021/06/23 04:56:45;;;;;;;13.13;9.27;;;;;;;18.74;84.97;96345.63;5072661;28;20048;-72
2021/06/23 04:59:11;;;;;;;16.40;12.30;;;;;;;18.73;84.90;96344.06;5071987;28;20040;-72
2021/06/23 05:01:38;;;;;;;18.92;14.85;;;;;;;18.73;84.80;96355.09;5072174;28;20037;-72
2021/06/23 05:04:05;;;;;;;24.33;16.35;;;;;;;18.79;85.35;96359.13;5071926;28;20048;-72
2021/06/23 05:06:32;;;;;;;21.98;16.17;;;;;;;18.83;85.48;96342.63;5072064;28;20514;-73
2021/06/23 05:08:59;;;;;;;19.42;14.77;;;;;;;18.83;85.38;96348.13;5072201;28;20044;-72
2021/06/23 05:11:26;;;;;;;20.77;13.77;;;;;;;18.82;85.27;96352.88;5071561;28;20041;-72
2021/06/23 05:13:55;;;;;;;19.73;13.52;;;;;;;18.78;85.03;96352.81;5072211;28;20517;-73
2021/06/23 05:16:22;;;;;;;19.15;13.38;;;;;;;18.78;85.04;96357.53;5071495;28;20048;-77
2021/06/23 05:18:51;;;;;;;19.77;13.30;;;;;;;18.81;84.58;96356.78;5072006;28;20083;-76
2021/06/23 05:21:18;;;;;;;19.90;13.70;;;;;;;18.83;84.79;96359.19;5070046;28;20055;-76
2021/06/23 05:23:46;;;;;;;18.95;13.23;;;;;;;18.88;84.21;96350.59;5070448;28;20040;-77
2021/06/23 05:26:12;;;;;;;17.50;14.27;;;;;;;18.89;84.19;96366.75;5071106;28;20136;-76
2021/06/23 05:28:39;;;;;;;18.83;15.02;;;;;;;18.90;84.70;96368.38;5071138;28;20047;-76
2021/06/23 05:31:06;;;;;;;17.63;15.05;;;;;;;18.93;84.59;96364.84;5071191;28;20067;-75
2021/06/23 05:33:32;;;;;;;21.25;14.90;;;;;;;18.91;85.09;96356.16;5071509;28;20039;-76
2021/06/23 05:35:59;;;;;;;22.25;16.50;;;;;;;18.88;85.11;96376.22;5071013;28;20049;-76
2021/06/23 05:38:25;;;;;;;25.77;17.17;;;;;;;18.88;85.15;96373.44;5071102;28;20384;-76
2021/06/23 05:40:53;;;;;;;22.35;16.42;;;;;;;18.86;85.18;96372.25;5071321;28;20590;-75
2021/06/23 05:43:19;;;;;;;29.27;18.60;;;;;;;18.90;85.46;96371.13;5071256;28;20047;-76
2021/06/23 05:45:46;;;;;;;30.00;19.60;;;;;;;18.96;85.84;96369.63;5071395;28;20047;-75
2021/06/23 05:48:12;;;;;;;26.60;18.00;;;;;;;18.99;86.13;96368.09;5070902;28;20049;-77
2021/06/23 05:50:41;;;;;;;30.10;18.35;;;;;;;19.06;86.19;96367.41;5071077;28;20044;-76
2021/06/23 05:53:08;;;;;;;19.55;16.25;;;;;;;19.10;86.31;96373.75;5071122;28;20056;-77
2021/06/23 05:55:36;;;;;;;24.73;17.88;;;;;;;19.14;85.96;96364.34;5070893;28;20040;-76
2021/06/23 05:58:04;;;;;;;20.40;16.40;;;;;;;19.20;86.05;96373.13;5070991;28;20090;-76
2021/06/23 06:00:30;;;;;;;22.25;16.42;;;;;;;19.28;85.79;96369.28;5071048;28;20044;-76
2021/06/23 06:02:57;;;;;;;22.10;17.10;;;;;;;19.27;85.52;96368.50;5071318;28;20051;-76
2021/06/23 06:05:23;;;;;;;24.52;16.48;;;;;;;19.31;85.38;96376.81;5070408;28;20045;-75
2021/06/23 06:07:50;;;;;;;17.05;13.98;;;;;;;19.33;84.67;96371.72;5069242;28;20522;-75
2021/06/23 06:10:17;;;;;;;20.88;15.65;;;;;;;19.36;84.50;96370.97;5069749;28;20048;-75
2021/06/23 06:12:43;;;;;;;22.45;15.30;;;;;;;19.37;84.47;96374.50;5070709;28;20059;-75
2021/06/23 06:15:12;;;;;;;18.77;15.23;;;;;;;19.39;84.59;96386.00;5070269;28;20044;-75
2021/06/23 06:17:38;;;;;;;20.48;15.88;;;;;;;19.42;84.62;96386.06;5070640;28;20048;-75
2021/06/23 06:20:06;;;;;;;21.58;15.98;;;;;;;19.45;84.49;96387.25;5070097;28;20522;-75
2021/06/23 06:22:33;;;;;;;21.58;16.05;;;;;;;19.47;84.24;96391.25;5071102;28;20044;-75
2021/06/23 06:25:00;;;;;;;23.75;16.90;;;;;;;19.55;84.26;96400.41;5071043;28;20131;-74
2021/06/23 06:27:27;;;;;;;19.90;17.25;;;;;;;19.60;83.83;96399.31;5070982;28;20041;-75
2021/06/23 06:29:53;;;;;;;28.30;18.17;;;;;;;19.60;84.26;96396.56;5070854;28;20052;-74
2021/06/23 06:32:21;;;;;;;21.30;17.30;;;;;;;19.65;84.59;96408.06;5070412;28;20047;-75
2021/06/23 06:34:48;;;;;;;19.98;15.70;;;;;;;19.70;84.43;96407.75;5071089;28;20045;-74
2021/06/23 06:37:14;;;;;;;20.02;16.30;;;;;;;19.70;84.24;96402.22;5070557;28;20127;-75
2021/06/23 06:39:41;;;;;;;20.98;15.90;;;;;;;19.74;83.40;96410.56;5071041;28;20045;-75
2021/06/23 06:42:08;;;;;;;19.73;15.98;;;;;;;19.78;83.16;96408.59;5070512;28;20052;-75
2021/06/23 06:44:35;;;;;;;18.27;15.60;;;;;;;19.86;82.99;96410.28;5070997;28;20036;-75
2021/06/23 06:47:01;;;;;;;19.80;15.73;;;;;;;19.90;82.00;96405.63;5071514;28;20055;-75
2021/06/23 06:49:30;;;;;;;19.65;15.23;;;;;;;19.93;82.65;96407.59;5074584;28;20058;-76
2021/06/23 06:51:58;;;;;;;17.92;14.88;;;;;;;19.99;82.82;96411.66;5075044;28;20056;-75
2021/06/23 06:54:25;;;;;;;16.35;14.20;;;;;;;20.02;80.80;96407.31;5074291;28;20044;-75
2021/06/23 06:56:52;;;;;;;17.38;13.85;;;;;;;20.05;80.83;96417.63;5074642;28;20041;-75
2021/06/23 06:59:19;;;;;;;18.73;15.30;;;;;;;20.08;80.66;96406.59;5074379;28;20052;-75
2021/06/23 07:01:45;;;;;;;21.08;15.43;;;;;;;20.05;81.01;96412.91;5074703;28;20087;-75
2021/06/23 07:04:11;;;;;;;21.75;15.30;;;;;;;20.03;80.98;96415.22;5074216;28;20047;-75
2021/06/23 07:06:39;;;;;;;15.05;13.18;;;;;;;20.08;81.11;96411.31;5074785;28;20049;-76
2021/06/23 07:09:06;;;;;;;18.35;14.70;;;;;;;20.17;80.78;96413.81;5074150;28;20044;-75
2021/06/23 07:11:32;;;;;;;20.50;15.07;;;;;;;20.18;81.16;96416.19;5074357;28;20514;-75
2021/06/23 07:13:59;;;;;;;17.80;14.32;;;;;;;20.19;79.89;96415.00;5074360;28;20061;-74
2021/06/23 07:16:25;;;;;;;18.60;15.48;;;;;;;20.15;79.59;96414.19;5074050;28;20051;-75
2021/06/23 07:18:52;;;;;;;16.48;14.20;;;;;;;20.18;79.60;96415.38;5074432;28;20044;-75
2021/06/23 07:21:19;;;;;;;17.50;14.10;;;;;;;20.26;80.03;96417.84;5073855;28;20455;-75
2021/06/23 07:23:48;;;;;;;19.58;13.77;;;;;;;20.37;78.47;96417.97;5086635;28;20040;-75
2021/06/23 07:26:15;;;;;;;25.73;13.13;;;;;;;20.43;76.57;96412.88;5094015;28;20043;-76
2021/06/23 07:28:46;;;;;;;18.05;14.60;;;;;;;20.47;77.80;96414.53;5090614;28;20052;-75
2021/06/23 07:31:15;;;;;;;17.08;14.57;;;;;;;20.56;79.12;96408.66;5073723;28;20087;-75
2021/06/23 07:33:50;;;;;;;19.63;16.20;;;;;;;20.68;80.19;96410.38;5074178;28;20457;-76
2021/06/23 07:36:34;;;;;;;19.02;15.00;;;;;;;20.79;80.92;96408.50;5073932;28;20132;-74
2021/06/23 07:39:05;;;;;;;20.15;15.10;;;;;;;20.94;80.66;96406.63;5074157;28;20049;-75
2021/06/23 07:41:31;;;;;;;19.77;15.27;;;;;;;21.03;79.02;96405.09;5073774;28;20098;-74
2021/06/23 07:43:58;;;;;;;19.83;14.80;;;;;;;21.22;79.94;96401.28;5073925;28;20048;-74
2021/06/23 07:46:25;;;;;;;20.98;16.23;;;;;;;21.39;79.59;96399.03;5073341;28;20049;-75
2021/06/23 07:48:54;;;;;;;17.67;12.32;;;;;;;21.45;75.59;96398.25;5073826;28;20050;-74
2021/06/23 07:51:27;;;;;;;16.38;13.75;;;;;;;21.49;77.25;96392.75;5073265;28;20052;-74
2021/06/23 07:54:05;;;;;;;14.23;12.35;;;;;;;21.49;77.38;96388.00;5087373;28;20059;-74
2021/06/23 07:56:40;;;;;;;20.75;14.57;;;;;;;21.53;75.90;96397.13;5093707;28;20036;-74
2021/06/23 08:10:03;;;;;;;15.93;14.23;;;;;;;21.53;77.68;96388.81;5073736;28;20407;-75
2021/06/23 08:12:39;;;;;;;20.67;13.50;;;;;;;21.77;79.74;96386.53;5073193;28;20063;-74
2021/06/23 08:15:06;;;;;;;15.10;12.55;;;;;;;21.93;76.18;96395.31;5072945;28;20060;-75
2021/06/23 08:17:33;;;;;;;16.42;11.63;;;;;;;22.27;72.60;96386.72;5073438;28;20044;-75
2021/06/23 08:19:59;;;;;;;13.55;10.63;;;;;;;22.87;65.77;96380.44;5073120;28;20048;-74
2021/06/23 08:22:26;;;;;;;12.45;9.68;;;;;;;23.44;67.36;96383.16;5074032;28;20043;-75
2021/06/23 08:24:52;;;;;;;13.27;10.07;;;;;;;24.23;66.66;96382.84;5093543;28;20040;-74
2021/06/23 08:27:19;;;;;;;12.15;9.25;;;;;;;25.23;61.95;96377.31;5092548;28;20048;-74
2021/06/23 08:29:46;;;;;;;11.90;8.52;;;;;;;26.19;58.17;96383.78;5080128;28;20044;-74
2021/06/23 08:32:13;;;;;;;11.98;9.23;;;;;;;26.92;56.52;96380.28;5072537;28;20056;-74
2021/06/23 08:34:39;;;;;;;10.40;8.43;;;;;;;27.61;54.81;96388.28;5072799;28;20048;-73
2021/06/23 08:37:06;;;;;;;12.60;7.95;;;;;;;27.89;52.29;96384.16;5072412;28;20439;-75
2021/06/23 08:39:32;;;;;;;13.32;8.25;;;;;;;27.79;51.54;96381.16;5072944;28;20119;-76
2021/06/23 08:41:59;;;;;;;11.35;8.60;;;;;;;28.03;49.62;96384.66;5072573;28;20044;-76
2021/06/23 08:44:26;;;;;;;11.35;7.82;;;;;;;27.56;49.53;96390.38;5072311;28;20045;-76
2021/06/23 08:46:54;;;;;;;9.32;8.43;;;;;;;26.53;52.52;96389.31;5072666;28;20051;-77
2021/06/23 08:49:20;;;;;;;10.32;8.02;;;;;;;25.70;53.23;96386.75;5072317;28;20049;-76
2021/06/23 08:51:47;;;;;;;10.15;8.40;;;;;;;24.89;56.63;96389.13;5072777;28;20041;-74
2021/06/23 08:54:14;;;;;;;11.30;9.40;;;;;;;24.30;57.92;96385.56;5088467;28;20040;-74
2021/06/23 08:56:40;;;;;;;13.60;9.25;;;;;;;23.84;58.45;96381.03;5092807;28;20143;-76
2021/06/23 08:59:07;;;;;;;13.02;9.45;;;;;;;23.36;61.37;96378.78;5084765;28;20048;-76
2021/06/23 09:01:33;;;;;;;14.18;9.23;;;;;;;23.05;61.74;96381.22;5072387;28;20055;-76
2021/06/23 09:04:06;;;;;;;12.10;9.27;;;;;;;22.83;65.61;96379.63;5072402;28;20048;-77
2021/06/23 09:06:44;;;;;;;11.93;9.57;;;;;;;22.63;67.95;96384.78;5072446;28;20044;-79
2021/06/23 09:09:22;;;;;;;11.93;9.90;;;;;;;22.53;69.81;96386.34;5071585;28;20055;-76
2021/06/23 09:11:50;;;;;;;12.00;9.80;;;;;;;22.43;68.37;96383.56;5071900;28;20045;-76
2021/06/23 09:14:18;;;;;;;14.10;9.95;;;;;;;22.52;69.20;96381.22;5071584;28;20098;-76
2021/06/23 09:17:01;;;;;;;10.63;8.80;;;;;;;22.79;64.71;96379.63;5072060;28;20047;-76
2021/06/23 09:19:29;;;;;;;;;;;;;;;22.93;65.76;96376.09;5072212;28;20040;-74
2021/06/23 09:21:56;;;;;;;11.48;7.80;;;;;;;23.16;68.72;96373.66;5071841;28;19956;-74
2021/06/23 09:24:34;;;;;;;8.05;7.25;;;;;;;23.38;62.32;96377.19;5071438;28;20044;-77
2021/06/23 09:27:16;;;;;;;9.52;8.05;;;;;;;23.54;63.74;96373.97;5071906;28;20056;-73
2021/06/23 09:29:43;;;;;;;8.40;7.50;;;;;;;23.61;61.11;96371.16;5071696;28;20044;-75
2021/06/23 09:32:09;;;;;;;9.75;7.50;;;;;;;23.68;61.99;96373.16;5071389;28;20045;-74
2021/06/23 09:34:39;;;;;;;7.97;7.03;;;;;;;23.67;62.84;96372.38;5071744;28;20050;-75
2021/06/23 09:37:26;;;;;;;10.90;8.13;;;;;;;23.62;65.53;96372.75;5071487;28;20048;-74
2021/06/23 09:40:10;;;;;;;10.15;8.85;;;;;;;23.47;61.07;96379.53;5071517;28;20041;-74
2021/06/23 09:42:39;;;;;;;9.27;7.75;;;;;;;23.37;63.39;96374.81;5071470;28;20492;-78
2021/06/23 09:45:07;;;;;;;9.43;8.05;;;;;;;23.28;66.02;96374.44;5071109;28;20055;-74
2021/06/23 09:47:35;;;;;;;8.77;7.88;;;;;;;23.16;62.80;96375.66;5071279;28;20052;-75
2021/06/23 09:50:04;;;;;;;6.85;6.15;;;;;;;23.07;65.28;96373.28;5071138;28;20521;-75
2021/06/23 09:52:31;;;;;;;7.53;6.10;;;;;;;22.97;64.23;96371.34;5071166;28;20406;-77
2021/06/23 09:54:59;;;;;;;8.07;6.10;;;;;;;22.99;68.38;96366.16;5071313;28;20052;-76
2021/06/23 09:57:26;;;;;;;7.05;6.05;;;;;;;23.16;65.52;96373.66;5070863;28;20496;-77
2021/06/23 09:59:55;;;;;;;8.30;7.10;;;;;;;23.26;66.93;96368.50;5071337;28;20098;-77
2021/06/23 10:02:24;;;;;;;8.40;6.45;;;;;;;23.20;65.33;96370.09;5070774;28;20098;-76
2021/06/23 10:04:51;;;;;;;7.60;6.75;;;;;;;23.14;62.76;96367.72;5071111;28;20070;-76
2021/06/23 10:07:42;;;;;;;10.63;7.25;;;;;;;23.28;65.78;96366.88;5070875;28;20492;-76
2021/06/23 10:10:10;;;;;;;7.68;6.75;;;;;;;23.45;59.89;96362.50;5070792;28;20045;-77
2021/06/23 10:12:37;;;;;;;7.70;6.18;;;;;;;23.58;61.25;96363.63;5071317;28;20045;-77
2021/06/23 10:15:04;;;;;;;8.05;7.05;;;;;;;23.66;63.88;96368.00;5070651;28;20127;-76
2021/06/23 10:17:33;;;;;;;8.30;7.40;;;;;;;23.64;63.31;96366.81;5071000;28;20044;-77
2021/06/23 10:20:02;;;;;;;7.13;6.10;;;;;;;23.73;63.06;96361.63;5071187;28;20048;-77
2021/06/23 10:22:29;;;;;;;7.60;6.80;;;;;;;23.95;62.66;96354.75;5069957;28;20403;-77
2021/06/23 10:24:57;;;;;;;8.38;6.97;;;;;;;24.19;59.26;96355.81;5070872;28;20048;-77
2021/06/23 10:27:24;;;;;;;8.27;7.00;;;;;;;24.44;60.54;96352.13;5070530;28;20052;-75
2021/06/23 10:29:55;;;;;;;9.35;6.75;;;;;;;24.69;58.94;96358.28;5071099;28;20048;-75
2021/06/23 10:32:22;;;;;;;9.65;6.82;;;;;;;24.94;59.56;96352.47;5070677;28;20126;-76
2021/06/23 10:34:48;;;;;;;8.98;6.20;;;;;;;25.16;59.00;96341.97;5070783;28;20044;-75
2021/06/23 10:37:16;;;;;;;7.03;5.70;;;;;;;25.35;56.88;96342.56;5070524;28;20518;-76
2021/06/23 10:39:45;;;;;;;8.95;6.07;;;;;;;25.58;60.46;96341.88;5070829;28;20045;-75
2021/06/23 10:42:14;;;;;;;8.25;5.35;;;;;;;25.74;56.77;96339.31;5070272;28;20124;-75
2021/06/23 10:44:42;;;;;;;6.60;5.30;;;;;;;25.81;51.62;96342.03;5070838;28;20036;-75
2021/06/23 10:47:27;;;;;;;10.45;5.78;;;;;;;26.00;56.97;96343.38;5069894;28;20098;-75
2021/06/23 10:49:54;;;;;;;6.38;5.38;;;;;;;26.11;53.28;96343.25;5070716;28;20494;-75
2021/06/23 10:52:38;;;;;;;6.88;6.18;;;;;;;26.17;53.53;96347.13;5070092;28;20072;-75
2021/06/23 10:55:08;;;;;;;7.60;5.35;;;;;;;26.04;52.34;96332.94;5070347;28;20045;-75
2021/06/23 10:57:43;;;;;;;7.97;6.35;;;;;;;26.19;56.95;96331.53;5070611;28;20505;-77
2021/06/23 11:00:31;;;;;;;8.82;5.65;;;;;;;26.23;52.77;96323.91;5070245;28;20048;-76
2021/06/23 11:03:04;;;;;;;11.80;6.20;;;;;;;26.08;53.13;96327.31;5070607;28;20052;-76
2021/06/23 11:05:36;;;;;;;19.52;7.57;;;;;;;25.85;54.00;96325.25;5070487;28;20041;-78
2021/06/23 11:08:20;;;;;;;11.95;5.88;;;;;;;25.65;55.37;96322.28;5070314;28;20037;-77
2021/06/23 11:10:47;;;;;;;6.40;4.82;;;;;;;25.59;52.08;96312.81;5070641;28;20048;-78
2021/06/23 11:13:19;;;;;;;4.97;4.47;;;;;;;25.66;53.96;96310.72;5070105;28;20044;-78
2021/06/23 11:15:50;;;;;;;8.02;5.78;;;;;;;25.58;55.58;96323.19;5070518;28;20064;-78
2021/06/23 11:18:21;;;;;;;9.63;6.53;;;;;;;25.39;56.75;96321.78;5070220;28;20052;-76
2021/06/23 11:20:49;;;;;;;5.85;5.25;;;;;;;25.24;55.74;96318.38;5070275;28;20150;-76
2021/06/23 11:23:41;;;;;;;5.97;5.25;;;;;;;25.04;54.52;96320.16;5069556;28;20114;-76
2021/06/23 11:26:09;;;;;;;6.37;5.73;;;;;;;24.87;56.17;96329.47;5069887;28;20045;-76
2021/06/23 11:28:37;;;;;;;8.23;7.05;;;;;;;24.72;58.13;96324.03;5070276;28;20048;-75
2021/06/23 11:31:07;;;;;;;7.00;6.25;;;;;;;24.75;57.64;96316.06;5069983;28;20076;-76
2021/06/23 11:33:48;;;;;;;7.90;6.47;;;;;;;24.78;58.05;96318.00;5071662;28;20051;-76
2021/06/23 11:36:17;;;;;;;8.77;6.80;;;;;;;24.71;59.04;96321.66;5073657;28;20388;-75
2021/06/23 11:38:45;;;;;;;8.68;6.88;;;;;;;24.60;59.03;96312.63;5073952;28;20123;-75
2021/06/23 11:41:12;;;;;;;8.10;6.72;;;;;;;24.47;57.71;96315.09;5073451;28;20067;-76
2021/06/23 11:43:40;;;;;;;10.93;6.72;;;;;;;24.38;60.24;96309.19;5073672;28;20488;-77
2021/06/23 11:46:06;;;;;;;9.05;6.45;;;;;;;24.30;61.64;96308.44;5073380;28;20102;-76
2021/06/23 11:48:35;;;;;;;6.78;6.07;;;;;;;24.23;61.41;96310.50;5064489;28;20059;-76